createdAt,value
2023-03-17T00:00:32.812Z,29.51
2023-03-17T03:44:39.279Z,26.98
2023-03-17T03:48:39.486Z,27.01
2023-03-17T03:52:39.712Z,26.96
2023-03-17T03:56:39.876Z,26.94
2023-03-17T04:00:40.086Z,26.86
2023-03-17T04:04:40.315Z,26.90
2023-03-17T04:08:40.539Z,26.85
2023-03-17T04:12:40.745Z,26.83
2023-03-17T04:16:43.280Z,26.82
2023-03-17T04:20:40.668Z,26.75
2023-03-17T04:24:40.650Z,26.77
2023-03-17T04:28:40.582Z,26.77
2023-03-17T04:32:40.664Z,26.71
2023-03-17T04:36:40.520Z,26.72
2023-03-17T04:40:40.497Z,26.67
2023-03-17T04:44:40.538Z,26.62
2023-03-17T04:48:40.710Z,26.63
2023-03-17T04:52:40.928Z,26.55
2023-03-17T04:56:40.908Z,26.54
2023-03-17T05:00:40.916Z,26.51
2023-03-17T05:04:40.807Z,26.56
2023-03-17T05:08:40.762Z,26.51
2023-03-17T05:12:40.766Z,26.44
2023-03-17T05:16:40.746Z,26.44
2023-03-17T05:20:40.809Z,26.51
2023-03-17T05:24:40.764Z,26.47
2023-03-17T05:28:40.772Z,26.44
2023-03-17T05:32:40.739Z,26.36
2023-03-17T05:36:40.678Z,26.40
2023-03-17T05:40:40.621Z,26.38
2023-03-17T05:44:40.606Z,26.35
2023-03-17T05:48:40.683Z,26.35
2023-03-17T05:52:40.825Z,26.20
2023-03-17T05:56:40.786Z,26.22
2023-03-17T07:52:43.109Z,29.73
2023-03-17T13:16:47.697Z,25.35
2023-03-17T13:32:48.240Z,25.41
2023-03-17T13:36:48.150Z,25.48
2023-03-17T13:40:48.711Z,25.47
2023-03-17T13:44:48.557Z,25.45
2023-03-17T13:48:49.207Z,25.46
2023-03-17T13:52:49.220Z,25.51
2023-03-17T13:56:49.274Z,25.49
2023-03-17T14:00:49.831Z,25.49
2023-03-17T14:04:49.537Z,25.47
2023-03-17T14:08:49.749Z,25.52
2023-03-17T14:12:51.381Z,25.56
2023-03-17T14:16:50.516Z,25.57
2023-03-17T14:20:50.724Z,25.13
2023-03-17T14:24:51.746Z,25.58
2023-03-17T14:28:50.736Z,22.07
2023-03-17T14:32:51.001Z,23.67
2023-03-17T14:36:51.275Z,23.40
2023-03-17T14:40:50.825Z,23.76
2023-03-17T14:44:50.787Z,23.92
2023-03-17T14:48:50.799Z,24.06
2023-03-17T14:52:50.738Z,24.38
2023-03-17T14:56:50.708Z,24.65
2023-03-17T15:00:50.638Z,25.23
2023-03-17T15:04:50.765Z,25.60
2023-03-17T15:08:50.585Z,25.80
2023-03-17T15:12:50.742Z,26.18
2023-03-17T15:16:50.867Z,26.40
2023-03-17T15:20:50.769Z,26.60
2023-03-17T15:24:51.248Z,26.80
2023-03-17T15:28:51.244Z,27.06
2023-03-17T15:32:51.315Z,27.31
2023-03-17T15:36:51.291Z,27.45
2023-03-17T15:40:50.882Z,27.64
2023-03-17T15:44:51.254Z,27.86
2023-03-17T15:48:50.975Z,25.72
2023-03-17T15:52:51.199Z,25.79
2023-03-17T15:56:51.218Z,25.70
2023-03-17T16:00:51.766Z,25.81
2023-03-17T16:04:51.576Z,25.70
2023-03-17T16:08:51.560Z,25.24
2023-03-17T16:12:51.511Z,25.67
2023-03-17T16:16:51.762Z,26.24
2023-03-17T16:20:51.421Z,26.39
2023-03-17T19:16:54.498Z,30.91
2023-03-17T19:20:54.672Z,30.76
2023-03-17T19:24:54.862Z,30.72
2023-03-17T19:28:55.064Z,30.62
2023-03-17T19:44:55.919Z,30.46
2023-03-17T19:48:55.875Z,30.39
2023-03-17T19:52:55.868Z,30.26
2023-03-17T19:56:56.326Z,30.17
2023-03-17T20:00:55.777Z,30.13
2023-03-17T20:04:55.821Z,30.08
2023-03-17T20:08:55.714Z,29.96
2023-03-17T20:12:55.868Z,29.90
2023-03-17T20:16:55.735Z,29.82
2023-03-17T20:20:55.702Z,29.78
2023-03-17T20:24:55.684Z,29.66
2023-03-17T20:28:55.631Z,29.61
2023-03-17T20:32:55.690Z,29.55
2023-03-17T20:36:55.553Z,29.44
2023-03-17T20:40:55.623Z,29.44
2023-03-17T20:44:55.824Z,29.35
2023-03-17T20:48:56.029Z,29.21
2023-03-17T20:52:55.999Z,29.14
2023-03-17T20:56:55.993Z,29.06
2023-03-17T21:00:55.917Z,28.94
2023-03-17T21:04:55.884Z,28.84
2023-03-17T21:08:55.846Z,28.84
2023-03-17T21:12:55.837Z,28.77
2023-03-17T21:16:55.979Z,28.65
2023-03-17T21:20:55.950Z,28.60
2023-03-17T21:24:55.921Z,28.57
2023-03-17T21:28:55.899Z,28.49
2023-03-17T21:32:55.893Z,28.50
2023-03-17T21:36:56.004Z,28.41
2023-03-17T21:40:55.994Z,28.33
2023-03-17T21:44:55.973Z,28.23
2023-03-17T21:48:55.897Z,28.16
2023-03-17T21:56:55.817Z,27.92
2023-03-17T22:00:55.882Z,27.87
2023-03-17T22:04:56.000Z,27.81
2023-03-17T22:08:55.970Z,27.75
2023-03-17T22:12:55.928Z,27.75
2023-03-17T22:16:55.982Z,27.63
2023-03-17T22:20:55.870Z,27.61
2023-03-17T22:24:55.823Z,27.57
2023-03-17T22:28:55.822Z,27.41
2023-03-17T22:32:56.048Z,27.31
2023-03-17T22:36:55.881Z,27.29
2023-03-17T22:40:55.843Z,27.19
2023-03-17T22:44:55.802Z,27.13
2023-03-17T22:48:55.816Z,27.04
2023-03-17T22:52:55.735Z,26.94
2023-03-17T22:56:55.694Z,26.94
2023-03-17T23:00:55.920Z,26.82
2023-03-17T23:04:56.090Z,26.77
2023-03-17T23:08:56.285Z,26.68
2023-03-17T23:12:56.410Z,26.65
2023-03-17T23:16:56.642Z,26.61
2023-03-17T23:20:56.780Z,26.56
2023-03-17T23:24:56.908Z,26.46
2023-03-17T23:28:57.051Z,26.45
2023-03-17T23:32:57.250Z,26.30
2023-03-17T23:36:57.359Z,26.23
2023-03-17T23:40:57.513Z,26.19
2023-03-17T23:44:57.690Z,26.10
2023-03-17T23:48:57.874Z,26.11
2023-03-17T23:52:58.118Z,26.13
2023-03-17T23:56:58.087Z,26.11
